createdAt,value
2023-01-23T00:01:40.649Z,3.10
2023-01-23T00:04:09.285Z,3.10
2023-01-23T00:06:37.707Z,3.10
2023-01-23T00:09:07.570Z,3.10
2023-01-23T00:11:36.005Z,3.10
2023-01-23T00:14:05.850Z,3.00
2023-01-23T00:16:34.696Z,3.10
2023-01-23T00:19:03.291Z,3.10
2023-01-23T00:21:32.104Z,3.10
2023-01-23T00:24:02.806Z,3.10
2023-01-23T00:26:33.332Z,3.10
2023-01-23T00:29:02.221Z,3.00
2023-01-23T00:31:35.307Z,3.10
2023-01-23T00:34:06.187Z,3.00
2023-01-23T00:36:36.912Z,3.00
2023-01-23T00:39:07.758Z,3.00
2023-01-23T00:41:36.293Z,3.00
2023-01-23T00:44:04.648Z,3.00
2023-01-23T00:46:35.065Z,3.10
2023-01-23T00:49:03.569Z,3.00
2023-01-23T00:51:32.447Z,3.00
2023-01-23T00:54:01.326Z,3.00
2023-01-23T00:56:29.765Z,3.10
2023-01-23T00:58:58.356Z,3.10
2023-01-23T01:01:28.330Z,3.00
2023-01-23T01:03:58.115Z,3.10
2023-01-23T01:06:26.950Z,3.10
2023-01-23T01:08:55.286Z,3.10
2023-01-23T01:11:23.600Z,3.10
2023-01-23T01:13:51.890Z,3.10
2023-01-23T01:16:20.719Z,3.00
2023-01-23T01:18:49.122Z,3.10
2023-01-23T01:21:19.998Z,3.00
2023-01-23T01:23:48.217Z,3.10
2023-01-23T01:26:16.654Z,3.10
2023-01-23T01:28:45.200Z,3.10
2023-01-23T01:31:15.810Z,3.10
2023-01-23T01:33:45.265Z,3.10
2023-01-23T01:36:15.930Z,3.10
2023-01-23T01:38:46.318Z,3.10
2023-01-23T01:41:15.653Z,3.10
2023-01-23T01:43:44.352Z,3.20
2023-01-23T01:46:18.644Z,3.10
2023-01-23T01:48:59.241Z,3.20
2023-01-23T01:51:32.398Z,3.10
2023-01-23T01:54:21.155Z,3.10
2023-01-23T01:56:52.910Z,3.10
2023-01-23T01:59:23.136Z,3.10
2023-01-23T02:01:55.508Z,3.20
2023-01-23T02:04:24.330Z,3.20
2023-01-23T02:06:55.371Z,3.10
2023-01-23T02:09:28.300Z,3.20
2023-01-23T02:11:56.681Z,3.10
2023-01-23T02:14:25.873Z,3.10
2023-01-23T02:16:56.302Z,3.10
2023-01-23T02:19:41.644Z,3.10
2023-01-23T02:22:21.423Z,3.10
2023-01-23T02:24:59.734Z,3.10
2023-01-23T02:27:29.459Z,3.10
2023-01-23T02:29:57.671Z,3.20
2023-01-23T02:32:26.965Z,3.20
2023-01-23T02:34:58.971Z,3.10
2023-01-23T02:37:33.923Z,3.10
2023-01-23T02:40:03.759Z,3.20
2023-01-23T02:42:34.702Z,3.20
2023-01-23T02:45:03.638Z,3.20
2023-01-23T02:47:33.772Z,3.20
2023-01-23T02:50:02.151Z,3.10
2023-01-23T02:52:31.990Z,3.20
2023-01-23T02:55:00.248Z,3.20
2023-01-23T02:57:28.496Z,3.20
2023-01-23T03:00:15.854Z,3.20
2023-01-23T03:02:44.211Z,3.20
2023-01-23T03:05:12.598Z,3.20
2023-01-23T03:07:40.984Z,3.20
2023-01-23T03:10:10.453Z,3.30
2023-01-23T03:12:42.579Z,3.30
2023-01-23T03:15:13.029Z,3.20
2023-01-23T03:17:41.528Z,3.20
2023-01-23T03:20:10.904Z,3.30
2023-01-23T03:22:39.140Z,3.30
2023-01-23T03:25:07.896Z,3.30
2023-01-23T03:27:37.554Z,3.20
2023-01-23T03:30:15.800Z,3.30
2023-01-23T03:32:47.261Z,3.20
2023-01-23T03:35:18.059Z,3.20
2023-01-23T03:37:46.569Z,3.30
2023-01-23T03:40:35.895Z,3.20
2023-01-23T03:43:04.860Z,3.20
2023-01-23T03:45:33.690Z,3.20
2023-01-23T03:48:04.190Z,3.30
2023-01-23T03:50:32.957Z,3.30
2023-01-23T03:53:01.253Z,3.20
2023-01-23T03:55:29.555Z,3.20
2023-01-23T03:57:58.196Z,3.20
2023-01-23T04:00:26.430Z,3.20
2023-01-23T04:02:54.767Z,3.20
2023-01-23T04:05:24.394Z,3.30
2023-01-23T04:07:52.547Z,3.30
2023-01-23T04:10:21.044Z,3.20
2023-01-23T04:12:49.563Z,3.20
2023-01-23T04:15:18.221Z,3.20
2023-01-23T04:17:46.741Z,3.20
2023-01-23T04:20:15.329Z,3.20
2023-01-23T04:22:45.200Z,3.20
2023-01-23T04:25:13.363Z,3.20
2023-01-23T04:27:41.521Z,3.20
2023-01-23T04:30:10.965Z,3.30
2023-01-23T04:32:39.313Z,3.30
2023-01-23T04:35:08.331Z,3.30
2023-01-23T04:37:36.671Z,3.30
2023-01-23T04:40:07.238Z,3.30
2023-01-23T04:42:35.679Z,3.30
2023-01-23T04:45:04.017Z,3.30
2023-01-23T04:47:32.203Z,3.30
2023-01-23T04:50:00.605Z,3.30
2023-01-23T04:52:29.182Z,3.30
2023-01-23T04:54:57.538Z,3.30
2023-01-23T04:57:27.372Z,3.30
2023-01-23T04:59:55.698Z,3.30
2023-01-23T05:02:23.891Z,3.30
2023-01-23T05:04:52.306Z,3.30
2023-01-23T05:07:20.539Z,3.30
2023-01-23T05:09:48.747Z,3.40
2023-01-23T05:12:17.069Z,3.30
2023-01-23T05:14:46.659Z,3.30
2023-01-23T05:17:14.918Z,3.30
2023-01-23T05:19:43.203Z,3.40
2023-01-23T05:22:11.478Z,3.40
2023-01-23T05:24:39.818Z,3.30
2023-01-23T05:27:08.038Z,3.40
2023-01-23T05:29:36.271Z,3.40
2023-01-23T05:32:06.394Z,3.30
2023-01-23T05:34:34.667Z,3.30
2023-01-23T05:37:03.071Z,3.30
2023-01-23T05:39:33.244Z,3.30
2023-01-23T05:42:01.493Z,3.30
2023-01-23T05:44:30.525Z,3.40
2023-01-23T05:46:58.693Z,3.30
2023-01-23T05:49:28.558Z,3.30
2023-01-23T05:51:57.153Z,3.30
2023-01-23T05:54:25.424Z,3.30
2023-01-23T05:56:53.645Z,3.40
2023-01-23T05:59:21.851Z,3.40
2023-01-23T06:01:50.063Z,3.40
2023-01-23T06:04:19.186Z,3.40
2023-01-23T06:06:48.883Z,3.40
2023-01-23T06:09:17.096Z,3.40
2023-01-23T06:11:45.368Z,3.40
2023-01-23T06:14:13.604Z,3.40
2023-01-23T06:16:42.033Z,3.40
2023-01-23T06:19:11.273Z,3.40
2023-01-23T06:21:39.654Z,3.50
2023-01-23T06:24:09.985Z,3.50
2023-01-23T06:26:38.381Z,3.40
2023-01-23T06:29:06.746Z,3.40
2023-01-23T06:31:35.106Z,3.50
2023-01-23T06:34:03.612Z,3.50
2023-01-23T06:36:32.332Z,3.50
2023-01-23T06:39:00.674Z,3.50
2023-01-23T06:41:30.595Z,3.40
2023-01-23T06:43:59.129Z,3.50
2023-01-23T06:46:27.700Z,3.50
2023-01-23T06:48:56.269Z,3.50
2023-01-23T06:51:24.786Z,3.50
2023-01-23T06:53:53.139Z,3.50
2023-01-23T06:56:22.429Z,3.50
2023-01-23T06:58:52.491Z,3.50
2023-01-23T07:01:20.834Z,3.40
2023-01-23T07:03:49.038Z,3.40
2023-01-23T07:06:17.851Z,3.40
2023-01-23T07:08:46.132Z,3.40
2023-01-23T07:11:14.521Z,3.40
2023-01-23T07:13:43.070Z,3.50
2023-01-23T07:16:12.988Z,3.40
2023-01-23T07:18:41.532Z,3.40
2023-01-23T07:21:10.079Z,3.40
2023-01-23T07:23:38.496Z,3.40
2023-01-23T07:26:09.686Z,3.40
2023-01-23T07:28:38.215Z,3.40
2023-01-23T07:31:07.485Z,3.40
2023-01-23T07:33:37.243Z,3.40
2023-01-23T07:36:07.629Z,3.40
2023-01-23T07:38:36.411Z,3.40
2023-01-23T07:41:04.686Z,3.40
2023-01-23T07:43:33.047Z,3.30
2023-01-23T07:46:01.740Z,3.40
2023-01-23T07:48:30.578Z,3.40
2023-01-23T07:51:03.607Z,3.40
2023-01-23T07:53:32.666Z,3.40
2023-01-23T07:56:02.364Z,3.50
2023-01-23T07:58:30.629Z,3.50
2023-01-23T08:00:59.199Z,3.50
2023-01-23T08:03:29.215Z,3.50
2023-01-23T08:05:57.497Z,3.50
2023-01-23T08:08:27.322Z,3.50
2023-01-23T08:10:55.739Z,3.50
2023-01-23T08:13:24.083Z,3.50
2023-01-23T08:15:53.579Z,3.50
2023-01-23T08:18:22.092Z,3.50
2023-01-23T08:20:55.379Z,3.50
2023-01-23T08:23:27.507Z,3.50
2023-01-23T08:25:56.387Z,3.50
2023-01-23T08:28:25.610Z,3.50
2023-01-23T08:30:54.574Z,3.50
2023-01-23T08:33:23.483Z,3.40
2023-01-23T08:35:52.874Z,3.50
2023-01-23T08:38:21.775Z,3.50
2023-01-23T08:40:53.336Z,3.50
2023-01-23T08:43:22.448Z,3.60
2023-01-23T08:45:53.196Z,3.60
2023-01-23T08:48:22.867Z,3.60
2023-01-23T08:50:51.913Z,3.60
2023-01-23T08:53:20.437Z,3.60
2023-01-23T08:55:50.243Z,3.70
2023-01-23T08:58:18.561Z,3.70
2023-01-23T09:00:46.879Z,3.80
2023-01-23T09:03:15.219Z,3.80
2023-01-23T09:05:43.626Z,3.80
2023-01-23T09:08:11.788Z,3.80
2023-01-23T09:10:40.201Z,3.80
2023-01-23T09:13:09.856Z,3.90
2023-01-23T09:15:39.834Z,4.00
2023-01-23T09:18:08.376Z,4.00
2023-01-23T09:20:36.644Z,4.00
2023-01-23T09:23:04.825Z,4.00
2023-01-23T09:25:33.057Z,4.10
2023-01-23T09:28:01.197Z,4.10
2023-01-23T09:30:30.816Z,4.00
2023-01-23T09:32:59.111Z,4.00
2023-01-23T09:35:27.523Z,4.10
2023-01-23T09:38:01.536Z,4.10
2023-01-23T09:40:33.433Z,4.10
2023-01-23T09:43:10.320Z,4.10
2023-01-23T09:45:42.707Z,4.20
2023-01-23T09:48:26.136Z,4.20
2023-01-23T09:50:57.432Z,4.20
2023-01-23T09:53:31.190Z,4.20
2023-01-23T09:56:03.378Z,4.20
2023-01-23T09:58:38.380Z,4.20
2023-01-23T10:01:12.573Z,4.30
2023-01-23T10:03:41.944Z,4.30
2023-01-23T10:06:20.895Z,4.40
2023-01-23T10:09:06.117Z,4.40
2023-01-23T10:11:46.269Z,4.30
2023-01-23T10:14:36.872Z,4.40
2023-01-23T10:17:13.914Z,4.40
2023-01-23T10:19:58.185Z,4.40
2023-01-23T10:22:36.321Z,4.40
2023-01-23T10:25:14.566Z,4.40
2023-01-23T10:27:45.347Z,4.40
2023-01-23T10:30:25.668Z,4.50
2023-01-23T10:33:00.949Z,4.40
2023-01-23T10:35:37.129Z,4.50
2023-01-23T10:38:13.797Z,4.40
2023-01-23T10:41:00.591Z,4.40
2023-01-23T10:43:29.175Z,4.40
2023-01-23T10:45:57.862Z,4.40
2023-01-23T10:48:40.551Z,4.50
2023-01-23T10:51:31.807Z,4.50
2023-01-23T10:54:06.645Z,4.50
2023-01-23T10:56:37.525Z,4.60
2023-01-23T10:59:08.002Z,4.60
2023-01-23T11:01:40.328Z,4.70
2023-01-23T11:04:19.779Z,4.60
2023-01-23T11:07:02.577Z,4.60
2023-01-23T11:09:31.878Z,4.70
2023-01-23T11:12:05.908Z,4.70
2023-01-23T11:14:34.852Z,4.70
2023-01-23T11:17:06.992Z,4.70
2023-01-23T11:19:38.788Z,4.70
2023-01-23T11:22:30.799Z,4.70
2023-01-23T11:24:59.921Z,4.70
2023-01-23T11:27:31.091Z,4.70
2023-01-23T11:30:28.207Z,4.80
2023-01-23T11:33:00.379Z,4.80
2023-01-23T11:35:54.021Z,4.80
2023-01-23T11:38:30.793Z,4.80
2023-01-23T11:41:00.027Z,4.90
2023-01-23T11:43:28.897Z,5.00
2023-01-23T11:46:16.455Z,5.00
2023-01-23T11:49:01.407Z,5.10
2023-01-23T11:51:38.733Z,5.00
2023-01-23T11:54:37.739Z,5.10
2023-01-23T11:57:13.324Z,5.00
2023-01-23T11:59:51.915Z,5.10
2023-01-23T12:02:54.626Z,5.10
2023-01-23T12:06:18.762Z,5.10
2023-01-23T12:08:57.487Z,5.20
2023-01-23T12:11:30.075Z,5.30
2023-01-23T12:14:05.358Z,5.40
2023-01-23T12:17:00.140Z,5.30
2023-01-23T12:19:43.467Z,5.30
2023-01-23T12:22:16.937Z,5.30
2023-01-23T12:24:57.054Z,5.40
2023-01-23T12:27:34.405Z,5.50
2023-01-23T12:30:24.866Z,5.50
2023-01-23T12:33:05.890Z,5.50
2023-01-23T12:35:48.553Z,5.50
2023-01-23T12:38:29.595Z,5.40
2023-01-23T12:41:11.837Z,5.30
2023-01-23T12:43:46.722Z,5.30
2023-01-23T12:46:20.958Z,5.30
2023-01-23T12:48:55.356Z,5.30
2023-01-23T12:51:28.235Z,5.30
2023-01-23T12:53:59.856Z,5.30
2023-01-23T12:56:34.620Z,5.20
2023-01-23T12:59:09.188Z,5.30
2023-01-23T13:01:53.642Z,5.10
2023-01-23T13:04:37.463Z,5.20
2023-01-23T13:07:17.232Z,5.20
2023-01-23T13:09:58.210Z,5.20
2023-01-23T13:12:29.313Z,5.20
2023-01-23T13:15:39.051Z,5.20
2023-01-23T13:18:23.675Z,5.20
2023-01-23T13:21:16.759Z,5.20
2023-01-23T13:23:46.061Z,5.20
2023-01-23T13:26:32.410Z,5.20
2023-01-23T13:29:04.289Z,5.30
2023-01-23T13:31:41.756Z,5.20
2023-01-23T13:34:38.501Z,5.20
2023-01-23T13:37:47.620Z,5.10
2023-01-23T13:40:19.885Z,5.20
2023-01-23T13:42:48.269Z,5.20
2023-01-23T13:45:31.379Z,5.10
2023-01-23T14:23:06.877Z,5.00
2023-01-23T14:25:35.350Z,5.00
2023-01-23T14:28:06.908Z,5.00
2023-01-23T14:30:35.221Z,5.00
2023-01-23T14:33:11.605Z,5.00
2023-01-23T14:35:40.447Z,4.90
2023-01-23T14:38:10.322Z,5.00
2023-01-23T14:40:50.670Z,5.10
2023-01-23T14:43:23.384Z,5.00
2023-01-23T14:45:59.973Z,5.10
2023-01-23T14:48:29.102Z,5.00
2023-01-23T14:51:18.734Z,5.10
2023-01-23T14:53:56.262Z,5.10
2023-01-23T14:56:29.044Z,5.10
2023-01-23T14:58:59.777Z,5.00
2023-01-23T15:01:29.340Z,4.90
2023-01-23T15:04:03.189Z,4.90
2023-01-23T15:06:33.651Z,4.80
2023-01-23T15:09:18.479Z,4.80
2023-01-23T15:11:47.149Z,4.80
2023-01-23T15:14:28.272Z,4.70
2023-01-23T15:17:04.646Z,4.70
2023-01-23T15:19:35.999Z,4.70
2023-01-23T15:22:09.737Z,4.70
2023-01-23T15:24:39.379Z,4.70
2023-01-23T15:27:24.863Z,4.70
2023-01-23T15:29:53.522Z,4.60
2023-01-23T15:32:26.406Z,4.60
2023-01-23T15:34:57.712Z,4.60
2023-01-23T15:37:27.886Z,4.50
2023-01-23T15:40:02.177Z,4.50
2023-01-23T15:42:32.922Z,4.50
2023-01-23T15:45:02.342Z,4.50
2023-01-23T15:47:32.172Z,4.60
2023-01-23T15:50:01.748Z,4.50
2023-01-23T15:52:31.548Z,4.60
2023-01-23T15:55:04.544Z,4.50
2023-01-23T15:57:32.750Z,4.50
2023-01-23T16:00:01.510Z,4.50
2023-01-23T16:02:31.924Z,4.40
2023-01-23T16:05:01.997Z,4.40
2023-01-23T16:07:34.570Z,4.40
2023-01-23T16:10:06.047Z,4.40
2023-01-23T16:12:38.825Z,4.40
2023-01-23T16:15:15.513Z,4.30
2023-01-23T16:17:44.028Z,4.30
2023-01-23T16:20:16.264Z,4.30
2023-01-23T16:22:45.029Z,4.30
2023-01-23T16:25:20.407Z,4.30
2023-01-23T16:27:48.552Z,4.30
2023-01-23T16:30:22.645Z,4.30
2023-01-23T16:32:51.197Z,4.30
2023-01-23T16:35:19.973Z,4.30
2023-01-23T16:37:51.376Z,4.30
2023-01-23T16:40:23.626Z,4.30
2023-01-23T16:42:53.595Z,4.30
2023-01-23T16:45:24.331Z,4.20
2023-01-23T16:47:52.762Z,4.20
2023-01-23T16:50:23.168Z,4.20
2023-01-23T16:52:56.032Z,4.20
2023-01-23T16:55:31.042Z,4.10
2023-01-23T16:58:00.227Z,4.20
2023-01-23T17:00:34.884Z,4.20
2023-01-23T17:03:08.804Z,4.10
2023-01-23T17:05:38.043Z,4.20
2023-01-23T17:08:17.865Z,4.10
2023-01-23T17:10:48.895Z,4.10
2023-01-23T17:13:19.648Z,4.10
2023-01-23T17:15:49.057Z,4.10
2023-01-23T17:18:22.959Z,4.10
2023-01-23T17:20:51.889Z,4.10
2023-01-23T17:23:20.084Z,4.10
2023-01-23T17:25:59.908Z,4.10
2023-01-23T17:28:29.047Z,4.10
2023-01-23T17:31:01.585Z,4.10
2023-01-23T17:33:32.658Z,4.10
2023-01-23T17:36:04.713Z,4.00
2023-01-23T17:38:35.169Z,4.00
2023-01-23T17:41:06.624Z,3.90
2023-01-23T17:43:34.875Z,4.00
2023-01-23T17:46:03.240Z,3.90
2023-01-23T17:48:34.155Z,4.00
2023-01-23T17:51:02.619Z,4.00
2023-01-23T17:53:30.874Z,3.90
2023-01-23T17:55:59.145Z,3.90
2023-01-23T17:58:28.838Z,4.00
2023-01-23T18:00:56.992Z,4.00
2023-01-23T18:03:25.764Z,4.00
2023-01-23T18:05:54.087Z,4.00
2023-01-23T18:08:23.652Z,4.00
2023-01-23T18:10:55.341Z,4.00
2023-01-23T18:13:35.142Z,4.00
2023-01-23T18:16:09.811Z,4.10
2023-01-23T18:18:40.705Z,4.00
2023-01-23T18:21:17.907Z,4.10
2023-01-23T18:23:47.594Z,4.00
2023-01-23T18:26:36.416Z,4.10
2023-01-23T18:29:20.399Z,4.10
2023-01-23T18:32:00.103Z,4.00
2023-01-23T18:34:37.846Z,4.10
2023-01-23T18:37:17.062Z,4.10
2023-01-23T18:40:02.673Z,4.10
2023-01-23T18:42:36.246Z,4.00
2023-01-23T18:45:11.289Z,4.00
2023-01-23T18:47:40.161Z,4.00
2023-01-23T18:50:10.279Z,4.10
2023-01-23T18:52:51.951Z,4.00
2023-01-23T18:55:27.717Z,4.00
2023-01-23T18:58:16.057Z,4.10
2023-01-23T19:00:51.010Z,4.10
2023-01-23T19:03:19.893Z,4.10
2023-01-23T19:05:48.612Z,4.10
2023-01-23T19:08:28.218Z,4.10
2023-01-23T19:11:01.508Z,4.10
2023-01-23T19:13:34.793Z,4.10
2023-01-23T19:16:12.839Z,4.10
2023-01-23T19:18:48.736Z,4.10
2023-01-23T19:21:23.719Z,4.10
2023-01-23T19:23:58.619Z,4.10
2023-01-23T19:26:29.669Z,4.20
2023-01-23T19:28:59.716Z,4.20
2023-01-23T19:31:31.392Z,4.10
2023-01-23T19:34:00.675Z,4.10
2023-01-23T19:36:31.170Z,4.10
2023-01-23T19:39:03.019Z,4.10
2023-01-23T19:41:40.066Z,4.10
2023-01-23T19:44:08.591Z,4.00
2023-01-23T19:46:38.302Z,4.10
2023-01-23T19:49:06.549Z,4.10
2023-01-23T19:51:35.809Z,4.10
2023-01-23T19:54:06.565Z,4.10
2023-01-23T19:56:34.712Z,4.10
2023-01-23T19:59:03.156Z,4.10
2023-01-23T20:01:38.687Z,4.10
2023-01-23T20:04:09.500Z,4.10
2023-01-23T20:06:40.473Z,4.10
2023-01-23T20:09:11.074Z,4.10
2023-01-23T20:11:39.253Z,4.10
2023-01-23T20:14:07.533Z,4.10
2023-01-23T20:16:40.225Z,4.10
2023-01-23T20:19:12.049Z,4.10
2023-01-23T20:21:40.667Z,4.00
2023-01-23T20:24:09.178Z,4.10
2023-01-23T20:26:38.230Z,4.10
2023-01-23T20:29:07.383Z,4.10
2023-01-23T20:31:36.501Z,4.10
2023-01-23T20:34:04.950Z,4.10
2023-01-23T20:36:34.677Z,4.00
2023-01-23T20:39:03.773Z,4.10
2023-01-23T20:41:31.998Z,4.00
2023-01-23T20:44:01.121Z,4.10
2023-01-23T20:46:29.567Z,4.00
2023-01-23T20:48:58.298Z,4.10
2023-01-23T20:51:27.489Z,4.00
2023-01-23T20:53:56.075Z,4.00
2023-01-23T20:56:27.751Z,4.00
2023-01-23T20:59:14.650Z,4.00
2023-01-23T21:02:00.951Z,4.00
2023-01-23T21:04:31.378Z,4.10
2023-01-23T21:06:59.883Z,4.00
2023-01-23T21:09:29.851Z,4.00
2023-01-23T21:11:58.228Z,4.00
2023-01-23T21:14:26.602Z,4.00
2023-01-23T21:16:55.004Z,4.10
2023-01-23T21:19:23.624Z,4.00
2023-01-23T21:21:51.950Z,4.00
2023-01-23T21:24:20.938Z,4.00
2023-01-23T21:26:51.207Z,4.00
2023-01-23T21:29:19.524Z,4.00
2023-01-23T21:31:47.831Z,4.00
2023-01-23T21:34:16.429Z,4.00
2023-01-23T21:36:44.696Z,4.00
2023-01-23T21:39:15.034Z,4.00
2023-01-23T21:41:43.890Z,4.00
2023-01-23T21:44:13.881Z,4.00
2023-01-23T21:46:42.477Z,4.10
2023-01-23T21:49:11.006Z,4.00
2023-01-23T21:51:39.257Z,4.00
2023-01-23T21:54:07.525Z,4.00
2023-01-23T21:56:35.759Z,4.00
2023-01-23T21:59:04.054Z,4.00
2023-01-23T22:01:33.221Z,4.00
2023-01-23T22:04:03.360Z,4.00
2023-01-23T22:06:32.429Z,4.00
2023-01-23T22:09:01.091Z,4.00
2023-01-23T22:11:29.741Z,4.00
2023-01-23T22:13:58.477Z,4.00
2023-01-23T22:16:46.403Z,4.00
2023-01-23T22:19:17.505Z,4.00
2023-01-23T22:21:46.705Z,4.00
2023-01-23T22:24:18.317Z,4.00
2023-01-23T22:26:46.622Z,4.00
2023-01-23T22:29:15.299Z,4.00
2023-01-23T22:31:44.081Z,4.00
2023-01-23T22:34:12.477Z,4.00
2023-01-23T22:36:42.272Z,4.00
2023-01-23T22:39:13.151Z,4.00
2023-01-23T22:41:41.820Z,4.00
2023-01-23T22:44:10.145Z,4.00
2023-01-23T22:46:38.425Z,4.00
2023-01-23T22:49:07.410Z,3.90
2023-01-23T22:51:35.684Z,4.00
2023-01-23T22:54:06.229Z,4.00
2023-01-23T22:56:34.528Z,4.00
2023-01-23T22:59:03.120Z,4.00
2023-01-23T23:01:31.468Z,3.90
2023-01-23T23:04:00.495Z,4.00
2023-01-23T23:06:29.372Z,4.00
2023-01-23T23:08:57.907Z,4.00
2023-01-23T23:11:28.987Z,4.00
2023-01-23T23:14:00.349Z,4.00
2023-01-23T23:16:31.057Z,4.00
2023-01-23T23:19:01.098Z,3.90
2023-01-23T23:21:32.924Z,4.00
2023-01-23T23:24:02.131Z,3.90
2023-01-23T23:26:32.420Z,3.90
2023-01-23T23:29:01.491Z,3.90
2023-01-23T23:31:30.419Z,4.00
2023-01-23T23:33:59.279Z,3.90
2023-01-23T23:36:28.144Z,3.90
2023-01-23T23:38:56.788Z,3.90
2023-01-23T23:41:25.213Z,3.90
2023-01-23T23:43:55.191Z,3.90
2023-01-23T23:46:23.430Z,3.90
2023-01-23T23:48:51.727Z,3.90
2023-01-23T23:51:22.873Z,3.90
2023-01-23T23:53:51.578Z,3.90
2023-01-23T23:56:23.086Z,4.00
2023-01-23T23:58:52.031Z,3.90
